Little Falls, WV (26508)

5:04 AM EDT on July 25, 2016 (GMT -0400)
Seminole Way | | Change Station

Elev 1710 ft 39.59 °N, 79.89 °W | Updated 435 days ago

Mostly Cloudy
Mostly Cloudy
76 °F
Feels Like 76 °F
N
3
Wind Variable Wind from SSW
Gusts mph

Today
High -- | Low -- °F
--% Chance of Precip.
Yesterday
High -- | Low -- °F
Precip. -- in
Pressure 29.99 in
Visibility 9.0 miles
Clouds Clear
Dew Point 71 °F
Humidity 84%
Rainfall in
Snow Depth Not available.
6:13 AM 8:38 PM
Waning Gibbous, 68% visible
METAR KMGW 250853Z AUTO 00000KT 9SM CLR 23/21 A3003 RMK AO2 SLP156 T02280211 53001
Pressure 29.99 in
Visibility 9.0 miles
Clouds Clear
Dew Point 71 °F
Humidity 84%
Rainfall in
Snow Depth Not available.
6:13 AM 8:38 PM
Waning Gibbous, 68% visible
METAR KMGW 250853Z AUTO 00000KT 9SM CLR 23/21 A3003 RMK AO2 SLP156 T02280211 53001

10-Day Weather Forecast

Almanac

Astronomy

Jul. 25, 2016 Rise Set
Actual Time
Civil Twilight
Nautical Twilight
Astronomical Twilight
Moon
Length of Visible Light
Length of Day
Tomorrow will be .
, % of the Moon is Illuminated

Today's Extremes

State Highs State Lows

Community

WunderPhotos

Upload Photos

1,927,274 photos uploaded!

WunderBlog® & News

Nearby

Air Quality

  Air Quality AQ Index Pollutant
Not available.

Snow Depth

Station Depth Elevation

Earthquake Activity

City Distance Mag. Time & Date
Minimum magnitude displayed is 2.5.

Coastal Water Temperatures

Place Temperature

Stations

Nearby Weather Stations

Station Location Temp. Windchill Dew Point Humidity Wind Precip. Elev Updated Type
                   

Watches & Warnings

There are currently no watches in effect.